sensor_id;sensor_type;location;lat;lon;timestamp;temperature;humidity
75153;HTU21D;63734;45.218;36.708;2023-03-19T00:02:20;6.28;99.68
75153;HTU21D;63734;45.218;36.708;2023-03-19T00:04:46;6.25;99.72
75153;HTU21D;63734;45.218;36.708;2023-03-19T00:07:13;6.21;99.55
75153;HTU21D;63734;45.218;36.708;2023-03-19T00:09:40;6.19;99.38
75153;HTU21D;63734;45.218;36.708;2023-03-19T00:12:07;6.17;99.57
75153;HTU21D;63734;45.218;36.708;2023-03-19T00:14:33;6.17;99.96
75153;HTU21D;63734;45.218;36.708;2023-03-19T00:17:00;6.15;100.05
75153;HTU21D;63734;45.218;36.708;2023-03-19T00:19:26;6.14;99.83
75153;HTU21D;63734;45.218;36.708;2023-03-19T00:21:52;6.10;99.81
75153;HTU21D;63734;45.218;36.708;2023-03-19T00:24:20;6.07;99.74
75153;HTU21D;63734;45.218;36.708;2023-03-19T00:26:46;6.09;100.04
75153;HTU21D;63734;45.218;36.708;2023-03-19T00:29:13;6.09;100.19
75153;HTU21D;63734;45.218;36.708;2023-03-19T00:31:39;6.05;100.05
75153;HTU21D;63734;45.218;36.708;2023-03-19T00:34:06;6.06;100.12
75153;HTU21D;63734;45.218;36.708;2023-03-19T00:36:34;6.05;100.27
75153;HTU21D;63734;45.218;36.708;2023-03-19T00:39:00;6.06;100.19
75153;HTU21D;63734;45.218;36.708;2023-03-19T00:41:26;5.99;100.08
75153;HTU21D;63734;45.218;36.708;2023-03-19T00:43:54;6.00;100.23
75153;HTU21D;63734;45.218;36.708;2023-03-19T00:46:21;6.00;100.29
75153;HTU21D;63734;45.218;36.708;2023-03-19T00:48:48;6.00;100.32
75153;HTU21D;63734;45.218;36.708;2023-03-19T00:51:15;6.01;100.49
75153;HTU21D;63734;45.218;36.708;2023-03-19T00:53:43;5.97;100.35
75153;HTU21D;63734;45.218;36.708;2023-03-19T00:56:11;5.94;100.32
75153;HTU21D;63734;45.218;36.708;2023-03-19T00:58:38;5.92;100.45
75153;HTU21D;63734;45.218;36.708;2023-03-19T01:01:09;5.89;100.40
75153;HTU21D;63734;45.218;36.708;2023-03-19T01:03:36;5.85;100.35
75153;HTU21D;63734;45.218;36.708;2023-03-19T01:06:04;5.80;100.14
75153;HTU21D;63734;45.218;36.708;2023-03-19T01:08:30;5.80;100.35
75153;HTU21D;63734;45.218;36.708;2023-03-19T01:11:04;5.83;100.50
75153;HTU21D;63734;45.218;36.708;2023-03-19T01:13:30;5.82;100.45
75153;HTU21D;63734;45.218;36.708;2023-03-19T01:15:56;5.77;100.38
75153;HTU21D;63734;45.218;36.708;2023-03-19T01:18:22;5.76;100.45
75153;HTU21D;63734;45.218;36.708;2023-03-19T01:20:48;5.74;100.53
75153;HTU21D;63734;45.218;36.708;2023-03-19T01:23:14;5.74;100.61
75153;HTU21D;63734;45.218;36.708;2023-03-19T01:25:40;5.70;100.44
75153;HTU21D;63734;45.218;36.708;2023-03-19T01:28:06;5.69;100.49
75153;HTU21D;63734;45.218;36.708;2023-03-19T01:30:35;5.71;100.60
75153;HTU21D;63734;45.218;36.708;2023-03-19T01:33:14;5.71;100.65
75153;HTU21D;63734;45.218;36.708;2023-03-19T01:36:01;5.67;100.58
75153;HTU21D;63734;45.218;36.708;2023-03-19T01:38:36;5.67;100.69
75153;HTU21D;63734;45.218;36.708;2023-03-19T01:41:05;5.63;100.61
75153;HTU21D;63734;45.218;36.708;2023-03-19T01:43:34;5.61;100.65
75153;HTU21D;63734;45.218;36.708;2023-03-19T01:46:31;5.54;100.57
75153;HTU21D;63734;45.218;36.708;2023-03-19T01:49:18;5.54;100.71
75153;HTU21D;63734;45.218;36.708;2023-03-19T01:51:50;5.53;100.64
75153;HTU21D;63734;45.218;36.708;2023-03-19T01:54:31;5.50;100.70
75153;HTU21D;63734;45.218;36.708;2023-03-19T01:57:12;5.48;100.84
75153;HTU21D;63734;45.218;36.708;2023-03-19T02:00:05;5.46;100.90
75153;HTU21D;63734;45.218;36.708;2023-03-19T02:02:47;5.42;100.95
75153;HTU21D;63734;45.218;36.708;2023-03-19T02:05:41;5.41;101.02
75153;HTU21D;63734;45.218;36.708;2023-03-19T02:08:13;5.40;101.20
75153;HTU21D;63734;45.218;36.708;2023-03-19T02:10:42;5.39;101.13
75153;HTU21D;63734;45.218;36.708;2023-03-19T02:13:09;5.40;101.12
75153;HTU21D;63734;45.218;36.708;2023-03-19T02:15:36;5.37;101.12
75153;HTU21D;63734;45.218;36.708;2023-03-19T02:18:02;5.38;101.12
75153;HTU21D;63734;45.218;36.708;2023-03-19T02:20:45;5.33;101.09
75153;HTU21D;63734;45.218;36.708;2023-03-19T02:26:16;5.33;101.46
75153;HTU21D;63734;45.218;36.708;2023-03-19T02:28:46;5.33;101.41
75153;HTU21D;63734;45.218;36.708;2023-03-19T02:31:18;5.33;101.50
75153;HTU21D;63734;45.218;36.708;2023-03-19T02:34:05;5.30;101.51
75153;HTU21D;63734;45.218;36.708;2023-03-19T02:36:42;5.27;101.41
75153;HTU21D;63734;45.218;36.708;2023-03-19T02:40:02;5.25;101.43
75153;HTU21D;63734;45.218;36.708;2023-03-19T02:42:02;5.25;101.46
75153;HTU21D;63734;45.218;36.708;2023-03-19T02:44:30;5.25;101.44
75153;HTU21D;63734;45.218;36.708;2023-03-19T02:46:56;5.23;101.43
75153;HTU21D;63734;45.218;36.708;2023-03-19T02:49:22;5.24;101.47
75153;HTU21D;63734;45.218;36.708;2023-03-19T02:51:49;5.25;101.45
75153;HTU21D;63734;45.218;36.708;2023-03-19T02:54:16;5.23;101.42
75153;HTU21D;63734;45.218;36.708;2023-03-19T02:56:42;5.20;101.38
75153;HTU21D;63734;45.218;36.708;2023-03-19T02:59:08;5.23;101.56
75153;HTU21D;63734;45.218;36.708;2023-03-19T03:01:34;5.24;101.40
75153;HTU21D;63734;45.218;36.708;2023-03-19T03:04:00;5.24;101.40
75153;HTU21D;63734;45.218;36.708;2023-03-19T03:06:26;5.24;101.43
75153;HTU21D;63734;45.218;36.708;2023-03-19T03:08:52;5.24;101.40
75153;HTU21D;63734;45.218;36.708;2023-03-19T03:11:18;5.26;101.38
75153;HTU21D;63734;45.218;36.708;2023-03-19T03:13:44;5.26;101.37
75153;HTU21D;63734;45.218;36.708;2023-03-19T03:16:11;5.18;101.30
75153;HTU21D;63734;45.218;36.708;2023-03-19T03:18:37;5.15;101.54
75153;HTU21D;63734;45.218;36.708;2023-03-19T03:21:03;5.10;101.68
75153;HTU21D;63734;45.218;36.708;2023-03-19T03:23:29;5.07;101.79
75153;HTU21D;63734;45.218;36.708;2023-03-19T03:25:55;5.06;101.91
75153;HTU21D;63734;45.218;36.708;2023-03-19T03:28:21;5.05;102.21
75153;HTU21D;63734;45.218;36.708;2023-03-19T03:30:47;5.10;102.47
75153;HTU21D;63734;45.218;36.708;2023-03-19T03:33:13;5.12;102.54
75153;HTU21D;63734;45.218;36.708;2023-03-19T03:35:40;5.10;102.38
75153;HTU21D;63734;45.218;36.708;2023-03-19T03:38:06;5.08;102.26
75153;HTU21D;63734;45.218;36.708;2023-03-19T03:40:32;5.06;102.31
75153;HTU21D;63734;45.218;36.708;2023-03-19T03:42:58;5.09;102.31
75153;HTU21D;63734;45.218;36.708;2023-03-19T03:45:25;5.12;102.32
75153;HTU21D;63734;45.218;36.708;2023-03-19T03:47:52;5.15;102.25
75153;HTU21D;63734;45.218;36.708;2023-03-19T03:50:18;5.09;102.21
75153;HTU21D;63734;45.218;36.708;2023-03-19T03:52:45;5.10;102.28
75153;HTU21D;63734;45.218;36.708;2023-03-19T03:55:12;5.10;102.22
75153;HTU21D;63734;45.218;36.708;2023-03-19T03:57:38;5.10;102.12
75153;HTU21D;63734;45.218;36.708;2023-03-19T04:00:04;5.06;102.12
75153;HTU21D;63734;45.218;36.708;2023-03-19T04:02:38;5.02;102.16
75153;HTU21D;63734;45.218;36.708;2023-03-19T04:05:05;4.95;102.18
75153;HTU21D;63734;45.218;36.708;2023-03-19T04:07:32;4.93;102.41
75153;HTU21D;63734;45.218;36.708;2023-03-19T04:09:58;4.98;102.65
75153;HTU21D;63734;45.218;36.708;2023-03-19T04:12:24;5.00;102.81
75153;HTU21D;63734;45.218;36.708;2023-03-19T04:14:50;5.05;102.79
75153;HTU21D;63734;45.218;36.708;2023-03-19T04:17:17;5.04;102.63
75153;HTU21D;63734;45.218;36.708;2023-03-19T04:19:43;5.05;102.68
75153;HTU21D;63734;45.218;36.708;2023-03-19T04:22:09;5.06;102.58
75153;HTU21D;63734;45.218;36.708;2023-03-19T04:24:35;5.03;102.57
75153;HTU21D;63734;45.218;36.708;2023-03-19T04:27:02;5.01;102.71
75153;HTU21D;63734;45.218;36.708;2023-03-19T04:29:28;5.01;103.02
75153;HTU21D;63734;45.218;36.708;2023-03-19T04:31:55;5.04;103.05
75153;HTU21D;63734;45.218;36.708;2023-03-19T04:34:21;5.03;103.14
75153;HTU21D;63734;45.218;36.708;2023-03-19T04:36:47;4.98;103.30
75153;HTU21D;63734;45.218;36.708;2023-03-19T04:39:15;5.02;103.43
75153;HTU21D;63734;45.218;36.708;2023-03-19T04:41:41;5.02;103.48
75153;HTU21D;63734;45.218;36.708;2023-03-19T04:44:23;5.03;103.50
75153;HTU21D;63734;45.218;36.708;2023-03-19T04:46:49;5.06;103.50
75153;HTU21D;63734;45.218;36.708;2023-03-19T04:49:18;5.07;103.50
75153;HTU21D;63734;45.218;36.708;2023-03-19T04:51:45;5.11;103.53
75153;HTU21D;63734;45.218;36.708;2023-03-19T04:54:11;5.15;103.45
75153;HTU21D;63734;45.218;36.708;2023-03-19T04:56:37;5.18;103.47
75153;HTU21D;63734;45.218;36.708;2023-03-19T04:59:04;5.20;103.41
75153;HTU21D;63734;45.218;36.708;2023-03-19T05:01:30;5.23;103.31
75153;HTU21D;63734;45.218;36.708;2023-03-19T05:03:59;5.18;103.31
75153;HTU21D;63734;45.218;36.708;2023-03-19T05:06:26;5.18;103.20
75153;HTU21D;63734;45.218;36.708;2023-03-19T05:08:52;5.15;103.15
75153;HTU21D;63734;45.218;36.708;2023-03-19T05:11:20;5.11;103.21
75153;HTU21D;63734;45.218;36.708;2023-03-19T05:14:01;5.17;103.23
75153;HTU21D;63734;45.218;36.708;2023-03-19T05:16:34;5.20;103.14
75153;HTU21D;63734;45.218;36.708;2023-03-19T05:19:00;5.23;103.00
75153;HTU21D;63734;45.218;36.708;2023-03-19T05:21:26;5.23;102.91
75153;HTU21D;63734;45.218;36.708;2023-03-19T05:23:53;5.24;102.85
75153;HTU21D;63734;45.218;36.708;2023-03-19T05:26:20;5.21;102.78
75153;HTU21D;63734;45.218;36.708;2023-03-19T05:29:18;5.24;102.76
75153;HTU21D;63734;45.218;36.708;2023-03-19T05:32:04;5.22;102.61
75153;HTU21D;63734;45.218;36.708;2023-03-19T05:34:31;5.19;102.66
75153;HTU21D;63734;45.218;36.708;2023-03-19T05:36:58;5.20;102.48
75153;HTU21D;63734;45.218;36.708;2023-03-19T05:39:24;5.15;102.51
75153;HTU21D;63734;45.218;36.708;2023-03-19T05:41:51;5.13;102.51
75153;HTU21D;63734;45.218;36.708;2023-03-19T05:44:22;5.15;102.54
75153;HTU21D;63734;45.218;36.708;2023-03-19T05:47:10;5.20;102.58
75153;HTU21D;63734;45.218;36.708;2023-03-19T05:49:39;5.23;102.44
75153;HTU21D;63734;45.218;36.708;2023-03-19T05:52:06;5.23;102.49
75153;HTU21D;63734;45.218;36.708;2023-03-19T05:54:33;5.24;102.46
75153;HTU21D;63734;45.218;36.708;2023-03-19T05:57:07;5.25;102.34
75153;HTU21D;63734;45.218;36.708;2023-03-19T05:59:37;5.27;102.29
75153;HTU21D;63734;45.218;36.708;2023-03-19T06:02:39;5.27;102.31
75153;HTU21D;63734;45.218;36.708;2023-03-19T06:05:17;5.27;102.20
75153;HTU21D;63734;45.218;36.708;2023-03-19T06:07:44;5.25;102.29
75153;HTU21D;63734;45.218;36.708;2023-03-19T06:10:20;5.25;102.15
75153;HTU21D;63734;45.218;36.708;2023-03-19T06:12:51;5.19;102.12
75153;HTU21D;63734;45.218;36.708;2023-03-19T06:15:52;5.16;102.26
75153;HTU21D;63734;45.218;36.708;2023-03-19T06:18:26;5.10;102.32
75153;HTU21D;63734;45.218;36.708;2023-03-19T06:20:52;5.13;102.44
75153;HTU21D;63734;45.218;36.708;2023-03-19T06:23:18;5.18;102.47
75153;HTU21D;63734;45.218;36.708;2023-03-19T06:25:45;5.18;102.47
75153;HTU21D;63734;45.218;36.708;2023-03-19T06:28:12;5.24;102.44
75153;HTU21D;63734;45.218;36.708;2023-03-19T06:30:41;5.27;102.37
75153;HTU21D;63734;45.218;36.708;2023-03-19T06:33:30;5.32;102.21
75153;HTU21D;63734;45.218;36.708;2023-03-19T06:35:59;5.27;101.94
75153;HTU21D;63734;45.218;36.708;2023-03-19T06:38:28;5.25;101.98
75153;HTU21D;63734;45.218;36.708;2023-03-19T06:40:54;5.27;101.99
75153;HTU21D;63734;45.218;36.708;2023-03-19T06:43:20;5.30;102.00
75153;HTU21D;63734;45.218;36.708;2023-03-19T06:45:46;5.35;101.94
75153;HTU21D;63734;45.218;36.708;2023-03-19T06:48:12;5.37;101.80
75153;HTU21D;63734;45.218;36.708;2023-03-19T06:50:38;5.39;101.73
75153;HTU21D;63734;45.218;36.708;2023-03-19T06:53:05;5.35;101.51
75153;HTU21D;63734;45.218;36.708;2023-03-19T06:55:31;5.28;101.45
75153;HTU21D;63734;45.218;36.708;2023-03-19T06:57:56;5.24;101.59
75153;HTU21D;63734;45.218;36.708;2023-03-19T07:00:23;5.25;101.63
75153;HTU21D;63734;45.218;36.708;2023-03-19T07:02:49;5.28;101.72
75153;HTU21D;63734;45.218;36.708;2023-03-19T07:05:15;5.32;101.73
75153;HTU21D;63734;45.218;36.708;2023-03-19T07:07:41;5.36;101.75
75153;HTU21D;63734;45.218;36.708;2023-03-19T07:10:07;5.38;101.82
75153;HTU21D;63734;45.218;36.708;2023-03-19T07:12:33;5.40;101.80
75153;HTU21D;63734;45.218;36.708;2023-03-19T07:14:59;5.41;101.72
75153;HTU21D;63734;45.218;36.708;2023-03-19T07:17:25;5.41;101.72
75153;HTU21D;63734;45.218;36.708;2023-03-19T07:19:51;5.43;101.64
75153;HTU21D;63734;45.218;36.708;2023-03-19T07:22:17;5.40;101.60
75153;HTU21D;63734;45.218;36.708;2023-03-19T07:24:44;5.39;101.60
75153;HTU21D;63734;45.218;36.708;2023-03-19T07:27:10;5.41;101.64
75153;HTU21D;63734;45.218;36.708;2023-03-19T07:29:36;5.38;101.59
75153;HTU21D;63734;45.218;36.708;2023-03-19T07:32:02;5.39;101.72
75153;HTU21D;63734;45.218;36.708;2023-03-19T07:34:29;5.43;101.76
75153;HTU21D;63734;45.218;36.708;2023-03-19T07:36:55;5.47;101.66
75153;HTU21D;63734;45.218;36.708;2023-03-19T07:39:21;5.46;101.53
75153;HTU21D;63734;45.218;36.708;2023-03-19T07:41:47;5.45;101.51
75153;HTU21D;63734;45.218;36.708;2023-03-19T07:44:15;5.46;101.53
75153;HTU21D;63734;45.218;36.708;2023-03-19T07:46:41;5.49;101.44
75153;HTU21D;63734;45.218;36.708;2023-03-19T07:49:07;5.51;101.47
75153;HTU21D;63734;45.218;36.708;2023-03-19T07:51:34;5.52;101.44
75153;HTU21D;63734;45.218;36.708;2023-03-19T07:54:00;5.52;101.36
75153;HTU21D;63734;45.218;36.708;2023-03-19T07:56:26;5.46;101.15
75153;HTU21D;63734;45.218;36.708;2023-03-19T07:58:52;5.42;101.27
75153;HTU21D;63734;45.218;36.708;2023-03-19T08:01:18;5.43;101.40
75153;HTU21D;63734;45.218;36.708;2023-03-19T08:03:45;5.47;101.42
75153;HTU21D;63734;45.218;36.708;2023-03-19T08:06:13;5.50;101.35
75153;HTU21D;63734;45.218;36.708;2023-03-19T08:08:40;5.52;101.25
75153;HTU21D;63734;45.218;36.708;2023-03-19T08:11:08;5.51;101.19
75153;HTU21D;63734;45.218;36.708;2023-03-19T08:13:34;5.52;101.18
75153;HTU21D;63734;45.218;36.708;2023-03-19T08:16:00;5.56;101.11
75153;HTU21D;63734;45.218;36.708;2023-03-19T08:18:26;5.54;101.08
75153;HTU21D;63734;45.218;36.708;2023-03-19T08:20:52;5.52;101.09
75153;HTU21D;63734;45.218;36.708;2023-03-19T08:23:18;5.52;101.06
75153;HTU21D;63734;45.218;36.708;2023-03-19T08:25:44;5.51;101.05
75153;HTU21D;63734;45.218;36.708;2023-03-19T08:28:10;5.55;100.96
75153;HTU21D;63734;45.218;36.708;2023-03-19T08:30:37;5.54;100.79
75153;HTU21D;63734;45.218;36.708;2023-03-19T08:33:04;5.54;100.68
75153;HTU21D;63734;45.218;36.708;2023-03-19T08:35:30;5.52;100.67
75153;HTU21D;63734;45.218;36.708;2023-03-19T08:37:56;5.53;100.92
75153;HTU21D;63734;45.218;36.708;2023-03-19T08:40:23;5.55;100.88
75153;HTU21D;63734;45.218;36.708;2023-03-19T08:42:49;5.59;100.81
75153;HTU21D;63734;45.218;36.708;2023-03-19T08:45:15;5.56;100.89
75153;HTU21D;63734;45.218;36.708;2023-03-19T08:47:42;5.52;100.86
75153;HTU21D;63734;45.218;36.708;2023-03-19T08:50:09;5.47;100.81
75153;HTU21D;63734;45.218;36.708;2023-03-19T08:52:35;5.45;100.99
75153;HTU21D;63734;45.218;36.708;2023-03-19T08:55:01;5.46;101.06
75153;HTU21D;63734;45.218;36.708;2023-03-19T08:57:29;5.45;101.09
75153;HTU21D;63734;45.218;36.708;2023-03-19T08:59:55;5.39;100.98
75153;HTU21D;63734;45.218;36.708;2023-03-19T09:02:21;5.37;101.27
75153;HTU21D;63734;45.218;36.708;2023-03-19T09:04:48;5.45;101.24
75153;HTU21D;63734;45.218;36.708;2023-03-19T09:07:14;5.46;101.12
75153;HTU21D;63734;45.218;36.708;2023-03-19T09:09:42;5.47;101.09
75153;HTU21D;63734;45.218;36.708;2023-03-19T09:12:11;5.47;100.93
75153;HTU21D;63734;45.218;36.708;2023-03-19T09:14:37;5.47;100.89
75153;HTU21D;63734;45.218;36.708;2023-03-19T09:17:05;5.48;100.91
75153;HTU21D;63734;45.218;36.708;2023-03-19T09:19:31;5.56;100.91
75153;HTU21D;63734;45.218;36.708;2023-03-19T09:21:58;5.62;100.89
75153;HTU21D;63734;45.218;36.708;2023-03-19T09:24:24;5.64;100.74
75153;HTU21D;63734;45.218;36.708;2023-03-19T09:26:51;5.65;100.70
75153;HTU21D;63734;45.218;36.708;2023-03-19T09:29:17;5.67;100.66
75153;HTU21D;63734;45.218;36.708;2023-03-19T09:31:44;5.70;100.60
75153;HTU21D;63734;45.218;36.708;2023-03-19T09:34:10;5.72;100.64
75153;HTU21D;63734;45.218;36.708;2023-03-19T09:36:38;5.79;100.54
75153;HTU21D;63734;45.218;36.708;2023-03-19T09:39:05;5.81;100.34
75153;HTU21D;63734;45.218;36.708;2023-03-19T09:44:28;5.81;100.25
75153;HTU21D;63734;45.218;36.708;2023-03-19T09:47:09;5.83;100.33
75153;HTU21D;63734;45.218;36.708;2023-03-19T09:49:41;5.87;100.30
75153;HTU21D;63734;45.218;36.708;2023-03-19T09:54:50;5.97;100.16
75153;HTU21D;63734;45.218;36.708;2023-03-19T09:57:18;6.00;100.10
75153;HTU21D;63734;45.218;36.708;2023-03-19T09:59:45;6.00;100.06
75153;HTU21D;63734;45.218;36.708;2023-03-19T10:02:40;6.00;99.99
75153;HTU21D;63734;45.218;36.708;2023-03-19T10:11:32;6.04;99.58
75153;HTU21D;63734;45.218;36.708;2023-03-19T10:16:55;6.04;99.63
75153;HTU21D;63734;45.218;36.708;2023-03-19T10:19:33;6.05;99.59
75153;HTU21D;63734;45.218;36.708;2023-03-19T10:22:05;6.06;99.48
75153;HTU21D;63734;45.218;36.708;2023-03-19T10:24:33;6.07;99.29
75153;HTU21D;63734;45.218;36.708;2023-03-19T10:27:10;6.09;99.19
75153;HTU21D;63734;45.218;36.708;2023-03-19T10:29:37;6.12;99.06
75153;HTU21D;63734;45.218;36.708;2023-03-19T10:34:49;6.07;98.96
75153;HTU21D;63734;45.218;36.708;2023-03-19T10:37:27;6.02;99.05
75153;HTU21D;63734;45.218;36.708;2023-03-19T10:39:58;6.02;99.28
75153;HTU21D;63734;45.218;36.708;2023-03-19T10:42:34;6.07;99.20
75153;HTU21D;63734;45.218;36.708;2023-03-19T10:45:32;6.10;99.22
75153;HTU21D;63734;45.218;36.708;2023-03-19T10:47:59;6.14;99.16
75153;HTU21D;63734;45.218;36.708;2023-03-19T10:50:31;6.09;99.04
75153;HTU21D;63734;45.218;36.708;2023-03-19T10:55:56;6.10;98.94
75153;HTU21D;63734;45.218;36.708;2023-03-19T10:58:26;6.10;98.88
75153;HTU21D;63734;45.218;36.708;2023-03-19T11:01:11;6.07;98.80
75153;HTU21D;63734;45.218;36.708;2023-03-19T11:03:48;6.05;98.77
75153;HTU21D;63734;45.218;36.708;2023-03-19T11:06:33;6.01;98.77
75153;HTU21D;63734;45.218;36.708;2023-03-19T11:09:11;6.04;99.01
75153;HTU21D;63734;45.218;36.708;2023-03-19T11:11:43;6.10;99.10
75153;HTU21D;63734;45.218;36.708;2023-03-19T11:14:21;6.07;99.12
75153;HTU21D;63734;45.218;36.708;2023-03-19T11:17:13;6.05;99.32
75153;HTU21D;63734;45.218;36.708;2023-03-19T11:19:42;6.02;99.58
75153;HTU21D;63734;45.218;36.708;2023-03-19T11:22:26;6.02;99.69
75153;HTU21D;63734;45.218;36.708;2023-03-19T11:24:59;6.07;99.90
75153;HTU21D;63734;45.218;36.708;2023-03-19T11:27:34;6.08;100.17
75153;HTU21D;63734;45.218;36.708;2023-03-19T11:30:11;6.05;100.44
75153;HTU21D;63734;45.218;36.708;2023-03-19T11:38:13;6.09;101.14
75153;HTU21D;63734;45.218;36.708;2023-03-19T11:49:59;6.16;100.45
75153;HTU21D;63734;45.218;36.708;2023-03-19T11:55:27;6.13;100.65
75153;HTU21D;63734;45.218;36.708;2023-03-19T11:58:28;6.12;100.81
75153;HTU21D;63734;45.218;36.708;2023-03-19T12:01:07;6.07;100.91
75153;HTU21D;63734;45.218;36.708;2023-03-19T12:04:33;6.06;101.14
75153;HTU21D;63734;45.218;36.708;2023-03-19T12:07:18;6.05;101.54
75153;HTU21D;63734;45.218;36.708;2023-03-19T12:10:27;6.04;101.62
75153;HTU21D;63734;45.218;36.708;2023-03-19T12:13:14;6.01;101.70
75153;HTU21D;63734;45.218;36.708;2023-03-19T12:24:25;6.05;102.30
75153;HTU21D;63734;45.218;36.708;2023-03-19T12:30:13;6.01;102.31
75153;HTU21D;63734;45.218;36.708;2023-03-19T12:35:30;5.98;102.60
75153;HTU21D;63734;45.218;36.708;2023-03-19T12:42:05;6.02;102.57
75153;HTU21D;63734;45.218;36.708;2023-03-19T12:44:43;6.02;102.63
75153;HTU21D;63734;45.218;36.708;2023-03-19T12:47:38;6.02;102.65
75153;HTU21D;63734;45.218;36.708;2023-03-19T12:50:08;5.99;102.68
75153;HTU21D;63734;45.218;36.708;2023-03-19T12:52:40;5.95;102.63
75153;HTU21D;63734;45.218;36.708;2023-03-19T12:55:20;5.92;102.83
75153;HTU21D;63734;45.218;36.708;2023-03-19T12:57:50;5.92;102.99
75153;HTU21D;63734;45.218;36.708;2023-03-19T13:00:36;5.89;103.10
75153;HTU21D;63734;45.218;36.708;2023-03-19T13:03:27;5.86;103.14
75153;HTU21D;63734;45.218;36.708;2023-03-19T13:08:34;5.81;103.40
75153;HTU21D;63734;45.218;36.708;2023-03-19T13:11:05;5.83;103.54
75153;HTU21D;63734;45.218;36.708;2023-03-19T13:13:47;5.85;103.69
75153;HTU21D;63734;45.218;36.708;2023-03-19T13:21:44;5.85;103.92
75153;HTU21D;63734;45.218;36.708;2023-03-19T13:24:24;5.83;104.05
75153;HTU21D;63734;45.218;36.708;2023-03-19T13:26:52;5.83;104.17
75153;HTU21D;63734;45.218;36.708;2023-03-19T13:29:23;5.85;104.11
75153;HTU21D;63734;45.218;36.708;2023-03-19T13:31:51;5.81;104.21
75153;HTU21D;63734;45.218;36.708;2023-03-19T13:37:11;5.79;104.44
75153;HTU21D;63734;45.218;36.708;2023-03-19T13:39:38;5.80;104.47
75153;HTU21D;63734;45.218;36.708;2023-03-19T13:44:53;5.81;104.61
75153;HTU21D;63734;45.218;36.708;2023-03-19T13:50:10;5.78;104.70
75153;HTU21D;63734;45.218;36.708;2023-03-19T14:01:04;5.74;105.06
75153;HTU21D;63734;45.218;36.708;2023-03-19T14:03:33;5.78;105.18
75153;HTU21D;63734;45.218;36.708;2023-03-19T14:06:00;5.77;105.12
75153;HTU21D;63734;45.218;36.708;2023-03-19T14:08:49;5.78;105.13
75153;HTU21D;63734;45.218;36.708;2023-03-19T14:11:36;5.77;105.21
75153;HTU21D;63734;45.218;36.708;2023-03-19T14:14:07;5.80;105.25
75153;HTU21D;63734;45.218;36.708;2023-03-19T14:16:41;5.81;105.23
75153;HTU21D;63734;45.218;36.708;2023-03-19T14:19:16;5.78;105.24
75153;HTU21D;63734;45.218;36.708;2023-03-19T14:24:53;5.77;105.27
75153;HTU21D;63734;45.218;36.708;2023-03-19T14:27:31;5.76;105.34
75153;HTU21D;63734;45.218;36.708;2023-03-19T14:30:10;5.77;105.36
75153;HTU21D;63734;45.218;36.708;2023-03-19T14:32:41;5.76;105.48
75153;HTU21D;63734;45.218;36.708;2023-03-19T14:35:14;5.77;105.50
75153;HTU21D;63734;45.218;36.708;2023-03-19T14:37:45;5.77;105.61
75153;HTU21D;63734;45.218;36.708;2023-03-19T14:40:23;5.79;105.74
75153;HTU21D;63734;45.218;36.708;2023-03-19T14:51:35;5.81;105.89
75153;HTU21D;63734;45.218;36.708;2023-03-19T14:56:46;5.79;105.92
75153;HTU21D;63734;45.218;36.708;2023-03-19T14:59:13;5.78;105.98
75153;HTU21D;63734;45.218;36.708;2023-03-19T15:01:51;5.80;106.05
75153;HTU21D;63734;45.218;36.708;2023-03-19T15:04:20;5.78;106.07
75153;HTU21D;63734;45.218;36.708;2023-03-19T15:06:55;5.79;106.18
75153;HTU21D;63734;45.218;36.708;2023-03-19T15:09:29;5.78;106.21
75153;HTU21D;63734;45.218;36.708;2023-03-19T15:17:29;5.81;106.22
75153;HTU21D;63734;45.218;36.708;2023-03-19T15:19:59;5.80;106.25
75153;HTU21D;63734;45.218;36.708;2023-03-19T15:22:30;5.84;106.23
75153;HTU21D;63734;45.218;36.708;2023-03-19T15:25:09;5.84;106.22
75153;HTU21D;63734;45.218;36.708;2023-03-19T15:27:36;5.85;106.17
75153;HTU21D;63734;45.218;36.708;2023-03-19T15:30:03;5.86;106.17
75153;HTU21D;63734;45.218;36.708;2023-03-19T15:32:43;5.87;106.13
75153;HTU21D;63734;45.218;36.708;2023-03-19T15:35:09;5.92;106.08
75153;HTU21D;63734;45.218;36.708;2023-03-19T15:37:39;5.92;106.07
75153;HTU21D;63734;45.218;36.708;2023-03-19T15:40:12;5.93;106.00
75153;HTU21D;63734;45.218;36.708;2023-03-19T15:42:39;5.95;105.94
75153;HTU21D;63734;45.218;36.708;2023-03-19T15:45:10;5.97;105.91
75153;HTU21D;63734;45.218;36.708;2023-03-19T15:47:43;5.99;105.83
75153;HTU21D;63734;45.218;36.708;2023-03-19T15:50:15;6.00;105.76
75153;HTU21D;63734;45.218;36.708;2023-03-19T15:52:50;6.04;105.78
75153;HTU21D;63734;45.218;36.708;2023-03-19T15:55:17;6.06;105.71
75153;HTU21D;63734;45.218;36.708;2023-03-19T15:57:46;6.05;105.70
75153;HTU21D;63734;45.218;36.708;2023-03-19T16:00:14;5.99;105.70
75153;HTU21D;63734;45.218;36.708;2023-03-19T16:02:42;5.96;105.74
75153;HTU21D;63734;45.218;36.708;2023-03-19T16:05:26;5.94;105.66
75153;HTU21D;63734;45.218;36.708;2023-03-19T16:07:56;5.94;105.79
75153;HTU21D;63734;45.218;36.708;2023-03-19T16:12:54;5.92;105.76
75153;HTU21D;63734;45.218;36.708;2023-03-19T16:15:27;5.90;105.84
75153;HTU21D;63734;45.218;36.708;2023-03-19T16:17:54;5.93;105.79
75153;HTU21D;63734;45.218;36.708;2023-03-19T16:20:21;5.93;105.76
75153;HTU21D;63734;45.218;36.708;2023-03-19T16:22:55;5.92;105.82
75153;HTU21D;63734;45.218;36.708;2023-03-19T16:25:28;5.95;105.79
75153;HTU21D;63734;45.218;36.708;2023-03-19T16:27:57;5.99;105.83
75153;HTU21D;63734;45.218;36.708;2023-03-19T16:30:25;5.97;105.78
75153;HTU21D;63734;45.218;36.708;2023-03-19T16:33:03;5.97;105.78
75153;HTU21D;63734;45.218;36.708;2023-03-19T16:35:31;5.99;105.88
75153;HTU21D;63734;45.218;36.708;2023-03-19T16:38:23;6.00;105.74
75153;HTU21D;63734;45.218;36.708;2023-03-19T16:43:43;6.12;105.69
75153;HTU21D;63734;45.218;36.708;2023-03-19T16:46:11;6.09;105.56
75153;HTU21D;63734;45.218;36.708;2023-03-19T16:48:41;6.10;105.56
75153;HTU21D;63734;45.218;36.708;2023-03-19T16:51:13;6.09;105.47
75153;HTU21D;63734;45.218;36.708;2023-03-19T16:53:40;6.09;105.38
75153;HTU21D;63734;45.218;36.708;2023-03-19T16:56:12;6.09;105.25
75153;HTU21D;63734;45.218;36.708;2023-03-19T16:58:41;6.09;105.25
75153;HTU21D;63734;45.218;36.708;2023-03-19T17:01:22;6.08;105.30
75153;HTU21D;63734;45.218;36.708;2023-03-19T17:03:51;6.08;105.29
75153;HTU21D;63734;45.218;36.708;2023-03-19T17:06:22;6.11;105.42
75153;HTU21D;63734;45.218;36.708;2023-03-19T17:08:50;6.14;105.34
75153;HTU21D;63734;45.218;36.708;2023-03-19T17:11:28;6.16;105.28
75153;HTU21D;63734;45.218;36.708;2023-03-19T17:13:57;6.17;105.20
75153;HTU21D;63734;45.218;36.708;2023-03-19T17:16:25;6.20;105.06